createdAt,value
2023-05-19T00:01:03.719Z,101612.00
2023-05-19T00:03:34.211Z,101609.59
2023-05-19T00:06:06.077Z,101610.66
2023-05-19T00:08:35.575Z,101609.91
2023-05-19T00:11:03.996Z,101601.28
2023-05-19T00:13:32.572Z,101604.06
2023-05-19T00:16:01.047Z,101600.69
2023-05-19T00:18:29.915Z,101601.72
2023-05-19T00:20:58.000Z,101594.94
2023-05-19T00:23:27.486Z,101595.97
2023-05-19T00:25:55.522Z,101596.16
2023-05-19T00:28:23.551Z,101593.69
2023-05-19T00:30:52.499Z,101591.06
2023-05-19T00:33:20.632Z,101595.66
2023-05-19T00:35:48.858Z,101587.88
2023-05-19T00:38:16.994Z,101585.38
2023-05-19T00:40:46.866Z,101579.41
2023-05-19T00:43:14.956Z,101581.28
2023-05-19T00:45:43.219Z,101591.06
2023-05-19T00:48:11.352Z,101585.09
2023-05-19T00:50:39.557Z,101592.97
2023-05-19T00:53:08.139Z,101584.44
2023-05-19T00:55:40.547Z,101593.25
2023-05-19T00:58:12.270Z,101587.41
2023-05-19T01:00:40.768Z,101591.06
2023-05-19T01:03:11.532Z,101588.53
2023-05-19T01:05:44.771Z,101593.06
2023-05-19T01:08:12.927Z,101585.41
2023-05-19T01:10:41.210Z,101585.50
2023-05-19T01:13:10.730Z,101590.84
2023-05-19T01:15:54.716Z,101594.66
2023-05-19T01:18:32.011Z,101585.94
2023-05-19T01:21:23.678Z,101592.03
2023-05-19T01:24:03.859Z,101588.66
2023-05-19T01:26:56.943Z,101590.53
2023-05-19T01:29:42.598Z,101588.84
2023-05-19T01:32:13.356Z,101585.63
2023-05-19T01:34:45.379Z,101594.53
2023-05-19T01:37:16.040Z,101582.56
2023-05-19T01:39:45.742Z,101587.91
2023-05-19T01:42:15.572Z,101590.66
2023-05-19T01:44:44.117Z,101587.41
2023-05-19T01:47:14.252Z,101593.69
2023-05-19T01:49:42.378Z,101586.00
2023-05-19T01:52:10.618Z,101590.53
2023-05-19T01:54:38.759Z,101595.88
2023-05-19T01:57:21.185Z,101589.06
2023-05-19T01:59:58.025Z,101584.88
2023-05-19T02:02:37.168Z,101590.31
2023-05-19T02:05:14.672Z,101590.41
2023-05-19T02:07:49.636Z,101581.81
2023-05-19T02:10:24.363Z,101583.69
2023-05-19T02:12:54.602Z,101591.75
2023-05-19T02:15:26.104Z,101592.69
2023-05-19T02:18:00.390Z,101584.22
2023-05-19T02:20:29.379Z,101581.69
2023-05-19T02:22:57.842Z,101577.59
2023-05-19T02:25:26.074Z,101577.69
2023-05-19T02:27:54.291Z,101573.41
2023-05-19T02:30:22.441Z,101578.72
2023-05-19T02:32:50.568Z,101578.97
2023-05-19T02:35:20.317Z,101579.06
2023-05-19T02:37:48.401Z,101575.69
2023-05-19T02:40:16.508Z,101577.56
2023-05-19T02:42:45.485Z,101580.41
2023-05-19T02:45:13.600Z,101580.50
2023-05-19T02:47:42.616Z,101577.97
2023-05-19T02:50:10.996Z,101573.75
2023-05-19T02:52:40.515Z,101573.03
2023-05-19T02:55:09.538Z,101573.13
2023-05-19T02:57:37.640Z,101571.44
2023-05-19T03:00:06.963Z,101571.53
2023-05-19T03:02:35.561Z,101571.53
2023-05-19T03:05:04.028Z,101573.31
2023-05-19T03:07:33.770Z,101577.72
2023-05-19T03:10:05.640Z,101577.84
2023-05-19T03:12:34.520Z,101570.91
2023-05-19T03:15:02.697Z,101569.13
2023-05-19T03:17:33.852Z,101572.69
2023-05-19T03:20:02.626Z,101570.06
2023-05-19T03:22:30.784Z,101568.38
2023-05-19T03:24:58.912Z,101570.91
2023-05-19T03:27:28.516Z,101568.28
2023-05-19T03:29:56.567Z,101568.19
2023-05-19T03:32:25.259Z,101572.47
2023-05-19T03:34:53.390Z,101568.81
2023-05-19T03:37:21.700Z,101564.34
2023-05-19T03:39:49.747Z,101574.59
2023-05-19T03:42:18.127Z,101565.69
2023-05-19T03:44:47.700Z,101569.91
2023-05-19T03:47:16.000Z,101565.28
2023-05-19T03:49:52.913Z,101571.09
2023-05-19T03:52:46.811Z,101569.00
2023-05-19T03:55:25.688Z,101577.38
2023-05-19T03:57:53.926Z,101576.88
2023-05-19T04:00:23.820Z,101577.19
2023-05-19T04:02:52.390Z,101573.13
2023-05-19T04:05:20.579Z,101575.22
2023-05-19T04:07:48.612Z,101581.63
2023-05-19T04:10:16.863Z,101586.22
2023-05-19T04:12:44.917Z,101591.69
2023-05-19T04:15:13.208Z,101590.22
2023-05-19T04:17:43.330Z,101595.69
2023-05-19T04:20:12.801Z,101581.91
2023-05-19T04:22:40.868Z,101588.19
2023-05-19T04:25:09.636Z,101595.31
2023-05-19T04:27:40.985Z,101587.50
2023-05-19T04:30:10.155Z,101594.63
2023-05-19T04:32:39.708Z,101583.94
2023-05-19T04:35:09.962Z,101591.38
2023-05-19T04:37:39.168Z,101581.97
2023-05-19T04:40:11.229Z,101588.97
2023-05-19T04:42:43.251Z,101589.75
2023-05-19T04:45:12.704Z,101583.66
2023-05-19T04:47:44.481Z,101585.25
2023-05-19T04:50:14.438Z,101586.13
2023-05-19T04:52:45.543Z,101588.75
2023-05-19T04:55:13.801Z,101588.69
2023-05-19T04:57:43.174Z,101591.66
2023-05-19T05:00:13.907Z,101590.13
2023-05-19T05:02:57.649Z,101586.75
2023-05-19T05:05:29.054Z,101578.72
2023-05-19T05:07:57.489Z,101580.72
2023-05-19T05:10:28.180Z,101574.50
2023-05-19T05:12:56.756Z,101574.56
2023-05-19T05:15:28.641Z,101580.22
2023-05-19T05:17:58.076Z,101579.00
2023-05-19T05:20:28.974Z,101577.28
2023-05-19T05:22:58.803Z,101579.47
2023-05-19T05:25:28.371Z,101575.06
2023-05-19T05:27:59.066Z,101576.88
2023-05-19T05:30:27.375Z,101574.63
2023-05-19T05:32:55.832Z,101576.38
2023-05-19T05:35:35.519Z,101576.16
2023-05-19T05:38:05.297Z,101573.72
2023-05-19T05:40:33.828Z,101571.75
2023-05-19T05:43:02.075Z,101569.72
2023-05-19T05:45:33.702Z,101566.47
2023-05-19T05:48:03.284Z,101566.72
2023-05-19T05:50:33.103Z,101563.66
2023-05-19T05:53:02.968Z,101567.81
2023-05-19T05:55:31.904Z,101572.69
2023-05-19T05:58:02.395Z,101577.16
2023-05-19T06:00:30.918Z,101571.72
2023-05-19T06:02:59.227Z,101578.00
2023-05-19T06:05:27.729Z,101569.91
2023-05-19T06:07:56.753Z,101577.16
2023-05-19T06:10:29.360Z,101570.47
2023-05-19T06:12:57.647Z,101569.63
2023-05-19T06:15:27.097Z,101574.28
2023-05-19T06:18:06.160Z,101568.28
2023-05-19T06:20:34.567Z,101564.91
2023-05-19T06:23:03.868Z,101566.03
2023-05-19T06:25:33.531Z,101563.53
2023-05-19T06:28:02.095Z,101578.06
2023-05-19T06:30:30.349Z,101571.09
2023-05-19T06:33:18.813Z,101576.38
2023-05-19T06:35:46.977Z,101563.97
2023-05-19T06:38:16.058Z,101567.44
2023-05-19T06:40:45.681Z,101569.97
2023-05-19T06:43:13.866Z,101561.03
2023-05-19T06:45:56.144Z,101565.03
2023-05-19T06:48:26.562Z,101564.91
2023-05-19T06:50:54.730Z,101564.91
2023-05-19T06:53:23.095Z,101555.97
2023-05-19T06:55:59.719Z,101560.69
2023-05-19T06:58:32.049Z,101560.09
2023-05-19T07:01:01.659Z,101559.50
2023-05-19T07:03:35.533Z,101554.13
2023-05-19T07:06:05.665Z,101563.31
2023-05-19T07:08:37.169Z,101562.56
2023-05-19T07:11:08.197Z,101553.00
2023-05-19T07:13:36.448Z,101556.19
2023-05-19T07:16:05.800Z,101555.41
2023-05-19T07:18:34.566Z,101551.84
2023-05-19T07:21:02.603Z,101554.88
2023-05-19T07:23:30.837Z,101545.78
2023-05-19T07:25:59.139Z,101547.28
2023-05-19T07:28:28.646Z,101540.88
2023-05-19T07:30:56.660Z,101549.91
2023-05-19T07:33:24.865Z,101545.78
2023-05-19T07:35:52.881Z,101542.66
2023-05-19T07:38:21.482Z,101538.53
2023-05-19T07:40:49.693Z,101541.06
2023-05-19T07:43:17.751Z,101538.75
2023-05-19T07:45:47.245Z,101541.59
2023-05-19T07:48:15.448Z,101540.47
2023-05-19T07:50:43.597Z,101543.47
2023-05-19T07:53:11.722Z,101539.53
2023-05-19T07:55:39.805Z,101527.94
2023-05-19T07:58:08.021Z,101531.34
2023-05-19T08:00:36.826Z,101527.88
2023-05-19T08:03:06.608Z,101525.09
2023-05-19T08:05:36.144Z,101536.41
2023-05-19T08:08:04.840Z,101543.09
2023-05-19T08:10:33.209Z,101532.63
2023-05-19T08:13:01.458Z,101530.16
2023-05-19T08:15:29.824Z,101526.00
2023-05-19T08:17:58.047Z,101520.19
2023-05-19T08:20:27.538Z,101519.38
2023-05-19T08:22:55.658Z,101513.88
2023-05-19T08:25:23.766Z,101514.72
2023-05-19T08:27:52.206Z,101518.75
2023-05-19T08:30:20.571Z,101520.06
2023-05-19T08:32:48.907Z,101519.91
2023-05-19T08:35:17.167Z,101510.44
2023-05-19T08:37:46.669Z,101503.13
2023-05-19T08:40:19.455Z,101501.59
2023-05-19T08:42:47.879Z,101506.25
2023-05-19T08:45:16.998Z,101498.94
2023-05-19T08:47:47.454Z,101493.22
2023-05-19T08:50:21.432Z,101488.53
2023-05-19T08:52:53.750Z,101488.53
2023-05-19T08:55:41.270Z,101489.81
2023-05-19T08:58:10.004Z,101483.97
2023-05-19T09:00:38.521Z,101468.22
2023-05-19T09:03:22.782Z,101472.53
2023-05-19T09:05:51.909Z,101474.63
2023-05-19T09:08:22.666Z,101471.84
2023-05-19T09:10:51.057Z,101471.72
2023-05-19T09:13:19.510Z,101461.66
2023-05-19T09:15:49.747Z,101470.00
2023-05-19T09:18:17.924Z,101458.16
2023-05-19T09:20:47.439Z,101463.19
2023-05-19T09:23:16.593Z,101461.34
2023-05-19T09:25:53.608Z,101456.88
2023-05-19T09:28:26.129Z,101449.28
2023-05-19T09:31:05.201Z,101444.09
2023-05-19T09:33:36.369Z,101446.19
2023-05-19T09:36:06.152Z,101446.84
2023-05-19T09:38:34.542Z,101440.47
2023-05-19T09:41:04.825Z,101438.66
2023-05-19T09:43:35.025Z,101436.16
2023-05-19T09:46:06.225Z,101436.13
2023-05-19T09:48:34.593Z,101433.59
2023-05-19T09:51:03.264Z,101420.56
2023-05-19T09:53:32.705Z,101414.16
2023-05-19T09:56:03.994Z,101422.66
2023-05-19T09:58:34.822Z,101422.25
2023-05-19T10:01:03.220Z,101413.94
2023-05-19T10:03:32.983Z,101430.31
2023-05-19T10:06:02.641Z,101408.75
2023-05-19T10:08:32.006Z,101417.66
2023-05-19T10:11:01.291Z,101407.88
2023-05-19T10:13:32.185Z,101410.94
2023-05-19T10:16:01.178Z,101415.72
2023-05-19T10:18:30.536Z,101407.19
2023-05-19T10:20:59.955Z,101416.91
2023-05-19T10:23:28.055Z,101393.28
2023-05-19T10:25:59.185Z,101389.09
2023-05-19T10:28:36.672Z,101394.44
2023-05-19T10:31:08.951Z,101390.50
2023-05-19T10:33:48.553Z,101391.34
2023-05-19T10:36:35.481Z,101382.88
2023-05-19T10:39:08.654Z,101389.09
2023-05-19T10:41:46.963Z,101384.78
2023-05-19T10:44:29.465Z,101396.44
2023-05-19T10:46:57.623Z,101389.84
2023-05-19T10:49:25.927Z,101387.25
2023-05-19T10:51:57.246Z,101383.50
2023-05-19T10:54:43.095Z,101394.88
2023-05-19T10:57:16.362Z,101400.88
2023-05-19T10:59:46.092Z,101406.13
2023-05-19T11:02:39.967Z,101398.88
2023-05-19T11:05:14.640Z,101400.91
2023-05-19T11:07:44.692Z,101400.94
2023-05-19T11:10:13.591Z,101391.22
2023-05-19T11:12:44.020Z,101384.81
2023-05-19T11:15:16.007Z,101389.56
2023-05-19T11:17:48.411Z,101382.47
2023-05-19T11:20:23.755Z,101385.56
2023-05-19T11:23:08.741Z,101384.72
2023-05-19T11:25:44.116Z,101401.09
2023-05-19T11:28:13.670Z,101381.41
2023-05-19T11:30:44.627Z,101382.66
2023-05-19T11:33:14.043Z,101385.91
2023-05-19T11:35:44.577Z,101382.19
2023-05-19T11:38:13.243Z,101386.91
2023-05-19T11:40:43.552Z,101365.91
2023-05-19T11:43:11.844Z,101369.50
2023-05-19T11:45:40.278Z,101372.34
2023-05-19T11:48:12.759Z,101381.41
2023-05-19T11:50:44.053Z,101367.63
2023-05-19T11:53:14.111Z,101365.78
2023-05-19T11:55:47.028Z,101368.13
2023-05-19T11:58:16.068Z,101371.03
2023-05-19T12:00:46.329Z,101365.09
2023-05-19T12:03:17.393Z,101361.63
2023-05-19T12:05:48.020Z,101355.44
2023-05-19T12:08:18.327Z,101362.66
2023-05-19T12:10:49.572Z,101369.09
2023-05-19T12:13:17.913Z,101368.66
2023-05-19T12:15:46.046Z,101370.13
2023-05-19T12:18:15.614Z,101360.00
2023-05-19T12:20:44.540Z,101352.97
2023-05-19T12:23:13.622Z,101368.88
2023-05-19T12:25:41.981Z,101359.56
2023-05-19T12:28:10.663Z,101349.38
2023-05-19T12:30:39.013Z,101357.44
2023-05-19T12:33:07.497Z,101354.78
2023-05-19T12:35:39.035Z,101356.19
2023-05-19T12:38:08.222Z,101356.94
2023-05-19T12:40:37.796Z,101344.38
2023-05-19T12:43:06.856Z,101350.88
2023-05-19T12:45:36.310Z,101356.56
2023-05-19T12:48:06.674Z,101353.41
2023-05-19T12:50:38.938Z,101342.44
2023-05-19T12:53:10.353Z,101343.91
2023-05-19T12:55:41.768Z,101336.19
2023-05-19T12:58:11.536Z,101329.09
2023-05-19T13:00:43.757Z,101335.38
2023-05-19T13:03:16.991Z,101325.03
2023-05-19T13:05:47.836Z,101328.34
2023-05-19T13:08:18.195Z,101327.09
2023-05-19T13:10:47.782Z,101323.00
2023-05-19T13:13:15.925Z,101339.69
2023-05-19T13:15:45.385Z,101326.25
2023-05-19T13:18:15.160Z,101315.25
2023-05-19T13:20:45.012Z,101315.56
2023-05-19T13:23:15.467Z,101311.22
2023-05-19T13:25:44.079Z,101320.44
2023-05-19T13:28:12.283Z,101319.00
2023-05-19T13:30:41.958Z,101318.22
2023-05-19T13:33:10.289Z,101322.97
2023-05-19T13:35:39.016Z,101324.84
2023-05-19T13:38:07.977Z,101318.19
2023-05-19T13:40:37.730Z,101312.00
2023-05-19T13:43:06.121Z,101308.28
2023-05-19T13:45:34.485Z,101314.09
2023-05-19T13:48:02.749Z,101315.91
2023-05-19T13:50:31.370Z,101316.78
2023-05-19T13:52:59.467Z,101306.03
2023-05-19T13:55:27.568Z,101311.41
2023-05-19T13:57:57.029Z,101302.09
2023-05-19T14:00:25.319Z,101296.50
2023-05-19T14:02:53.916Z,101304.78
2023-05-19T14:05:22.027Z,101299.22
2023-05-19T14:07:50.200Z,101295.91
2023-05-19T14:10:18.264Z,101300.22
2023-05-19T14:13:14.131Z,101295.03
2023-05-19T14:15:38.102Z,101283.19
2023-05-19T14:18:07.043Z,101299.25
2023-05-19T14:20:35.631Z,101282.47
2023-05-19T14:23:03.987Z,101276.66
2023-05-19T14:25:32.020Z,101284.41
2023-05-19T14:28:00.171Z,101290.25
2023-05-19T14:30:28.216Z,101306.84
2023-05-19T14:32:57.731Z,101291.75
2023-05-19T14:35:26.197Z,101297.13
2023-05-19T14:37:55.609Z,101295.06
2023-05-19T14:40:23.695Z,101300.56
2023-05-19T14:42:51.743Z,101284.19
2023-05-19T14:45:19.919Z,101284.63
2023-05-19T14:47:48.122Z,101296.41
2023-05-19T14:50:17.841Z,101279.03
2023-05-19T14:52:46.046Z,101289.38
2023-05-19T14:55:14.125Z,101283.34
2023-05-19T14:57:42.170Z,101277.38
2023-05-19T15:00:10.998Z,101279.25
2023-05-19T15:02:39.110Z,101295.06
2023-05-19T15:05:07.748Z,101292.78
2023-05-19T15:07:37.281Z,101306.81
2023-05-19T15:10:06.123Z,101306.00
2023-05-19T15:12:34.244Z,101292.59
2023-05-19T15:15:02.368Z,101291.75
2023-05-19T15:17:30.948Z,101296.28
2023-05-19T15:19:59.094Z,101293.63
2023-05-19T15:22:27.271Z,101286.41
2023-05-19T15:24:56.853Z,101282.66
2023-05-19T15:27:24.954Z,101278.22
2023-05-19T15:29:52.969Z,101269.31
2023-05-19T15:32:21.102Z,101281.13
2023-05-19T15:34:49.278Z,101288.38
2023-05-19T15:37:17.351Z,101286.16
2023-05-19T15:39:45.491Z,101279.56
2023-05-19T15:42:14.923Z,101279.78
2023-05-19T15:44:45.950Z,101270.44
2023-05-19T15:47:14.014Z,101280.75
2023-05-19T15:49:42.043Z,101281.00
2023-05-19T15:52:10.168Z,101272.50
2023-05-19T15:54:38.184Z,101264.84
2023-05-19T15:57:06.700Z,101265.47
2023-05-19T15:59:36.139Z,101267.97
2023-05-19T16:02:04.515Z,101255.78
2023-05-19T16:04:33.390Z,101248.16
2023-05-19T16:07:01.454Z,101251.47
2023-05-19T16:09:29.520Z,101245.91
2023-05-19T16:11:57.671Z,101254.97
2023-05-19T16:14:29.377Z,101251.44
2023-05-19T16:17:00.004Z,101260.50
2023-05-19T16:19:28.400Z,101253.03
2023-05-19T16:21:56.526Z,101250.75
2023-05-19T16:24:24.578Z,101248.47
2023-05-19T16:26:53.830Z,101254.72
2023-05-19T16:29:22.128Z,101245.44
2023-05-19T16:31:50.194Z,101248.97
2023-05-19T16:34:19.736Z,101244.88
2023-05-19T16:36:47.807Z,101246.31
2023-05-19T16:39:15.920Z,101245.44
2023-05-19T16:41:43.975Z,101243.56
2023-05-19T16:44:14.429Z,101246.66
2023-05-19T16:46:42.696Z,101243.13
2023-05-19T16:49:11.247Z,101242.75
2023-05-19T16:51:40.651Z,101245.66
2023-05-19T16:54:08.758Z,101245.25
2023-05-19T16:56:36.820Z,101247.94
2023-05-19T16:59:04.901Z,101244.03
2023-05-19T17:01:33.052Z,101248.38
2023-05-19T17:04:01.184Z,101245.06
2023-05-19T17:06:29.393Z,101246.50
2023-05-19T17:08:58.836Z,101235.50
2023-05-19T17:11:27.629Z,101228.44
2023-05-19T17:13:55.729Z,101233.53
2023-05-19T17:16:24.628Z,101232.66
2023-05-19T17:18:52.892Z,101229.66
2023-05-19T17:21:21.538Z,101223.97
2023-05-19T17:23:49.668Z,101223.66
2023-05-19T17:26:19.147Z,101235.06
2023-05-19T17:28:47.196Z,101241.38
2023-05-19T17:31:16.276Z,101230.63
2023-05-19T17:33:44.432Z,101245.63
2023-05-19T17:36:12.531Z,101242.78
2023-05-19T17:38:42.011Z,101240.50
2023-05-19T17:41:11.025Z,101249.34
2023-05-19T17:43:41.699Z,101244.75
2023-05-19T17:46:11.799Z,101237.63
2023-05-19T17:48:40.769Z,101242.47
2023-05-19T17:51:08.916Z,101236.84
2023-05-19T17:53:37.763Z,101246.19
2023-05-19T17:56:08.901Z,101241.66
2023-05-19T17:58:37.656Z,101244.59
2023-05-19T18:01:07.700Z,101236.97
2023-05-19T18:03:36.513Z,101242.34
2023-05-19T18:06:05.000Z,101238.38
2023-05-19T18:08:33.840Z,101241.22
2023-05-19T18:11:02.333Z,101240.06
2023-05-19T18:13:30.942Z,101243.69
2023-05-19T18:15:59.777Z,101240.94
2023-05-19T18:18:29.320Z,101244.50
2023-05-19T18:20:57.372Z,101248.53
2023-05-19T18:23:25.667Z,101243.53
2023-05-19T18:25:53.771Z,101249.63
2023-05-19T18:28:21.866Z,101254.75
2023-05-19T18:30:59.918Z,101262.06
2023-05-19T18:33:30.938Z,101261.38
2023-05-19T18:36:00.055Z,101255.53
2023-05-19T18:38:28.174Z,101252.91
2023-05-19T18:40:57.033Z,101257.72
2023-05-19T18:43:25.244Z,101251.78
2023-05-19T18:45:53.315Z,101263.47
2023-05-19T18:48:22.619Z,101264.41
2023-05-19T18:50:52.258Z,101254.25
2023-05-19T18:53:22.071Z,101263.00
2023-05-19T18:55:50.285Z,101258.59
2023-05-19T18:58:18.793Z,101263.69
2023-05-19T19:00:46.944Z,101270.56
2023-05-19T19:03:15.049Z,101271.31
2023-05-19T19:05:43.273Z,101271.03
2023-05-19T19:08:12.777Z,101277.31
2023-05-19T19:10:40.830Z,101293.91
2023-05-19T19:13:08.930Z,101291.75
2023-05-19T19:15:37.753Z,101281.63
2023-05-19T19:18:08.062Z,101290.16
2023-05-19T19:20:36.387Z,101290.91
2023-05-19T19:23:06.547Z,101293.47
2023-05-19T19:25:36.479Z,101289.22
2023-05-19T19:28:04.738Z,101298.28
2023-05-19T19:30:32.997Z,101297.16
2023-05-19T19:33:01.443Z,101299.69
2023-05-19T19:35:29.749Z,101298.41
2023-05-19T19:37:58.539Z,101292.59
2023-05-19T19:40:26.756Z,101299.66
2023-05-19T19:42:56.286Z,101302.19
2023-05-19T19:45:24.488Z,101303.75
2023-05-19T19:47:52.856Z,101306.47
2023-05-19T19:50:21.161Z,101306.50
2023-05-19T19:52:49.250Z,101295.44
2023-05-19T19:55:17.473Z,101308.81
2023-05-19T19:57:49.307Z,101307.16
2023-05-19T20:00:19.694Z,101308.38
2023-05-19T20:03:03.468Z,101306.78
2023-05-19T20:05:32.858Z,101308.75
2023-05-19T20:08:01.205Z,101310.78
2023-05-19T20:10:29.451Z,101311.00
2023-05-19T20:12:58.924Z,101307.84
2023-05-19T20:15:28.420Z,101314.69
2023-05-19T20:17:56.573Z,101314.53
2023-05-19T20:20:24.738Z,101324.38
2023-05-19T20:22:52.801Z,101321.72
2023-05-19T20:25:20.959Z,101323.38
2023-05-19T20:27:49.037Z,101324.06
2023-05-19T20:30:17.124Z,101319.25
2023-05-19T20:32:47.150Z,101322.72
2023-05-19T20:35:15.511Z,101328.53
2023-05-19T20:37:43.664Z,101333.38
2023-05-19T20:40:12.838Z,101324.03
2023-05-19T20:42:41.290Z,101327.03
2023-05-19T20:45:10.201Z,101328.50
2023-05-19T20:47:38.436Z,101322.72
2023-05-19T20:50:09.099Z,101319.03
2023-05-19T20:52:37.344Z,101315.19
2023-05-19T20:55:06.033Z,101317.16
2023-05-19T20:57:34.222Z,101311.28
2023-05-19T21:00:02.357Z,101310.78
2023-05-19T21:02:30.648Z,101318.22
2023-05-19T21:04:58.762Z,101319.50
2023-05-19T21:07:28.259Z,101320.44
2023-05-19T21:09:57.652Z,101330.53
2023-05-19T21:12:28.689Z,101327.97
2023-05-19T21:14:56.726Z,101330.09
2023-05-19T21:17:24.905Z,101329.34
2023-05-19T21:19:57.694Z,101341.72
2023-05-19T21:22:26.351Z,101340.16
2023-05-19T21:24:55.945Z,101341.94
2023-05-19T21:27:24.187Z,101347.97
2023-05-19T21:29:53.491Z,101341.91
2023-05-19T21:32:21.813Z,101346.34
2023-05-19T21:34:49.990Z,101345.28
2023-05-19T21:37:18.302Z,101345.72
2023-05-19T21:39:46.441Z,101342.00
2023-05-19T21:42:15.906Z,101346.78
2023-05-19T21:44:43.980Z,101346.38
2023-05-19T21:47:12.172Z,101340.72
2023-05-19T21:49:40.720Z,101352.63
2023-05-19T21:52:08.926Z,101344.94
2023-05-19T21:54:37.241Z,101342.75
2023-05-19T21:57:05.723Z,101341.53
2023-05-19T21:59:35.300Z,101340.16
2023-05-19T22:02:03.641Z,101347.75
2023-05-19T22:04:32.295Z,101342.72
2023-05-19T22:07:00.573Z,101339.69
2023-05-19T22:09:29.210Z,101353.38
2023-05-19T22:11:57.332Z,101351.16
2023-05-19T22:14:25.419Z,101345.63
2023-05-19T22:16:55.132Z,101340.09
2023-05-19T22:19:23.424Z,101345.16
2023-05-19T22:21:58.397Z,101342.22
2023-05-19T22:24:30.504Z,101342.94
2023-05-19T22:26:58.512Z,101343.25
2023-05-19T22:29:26.676Z,101340.50
2023-05-19T22:31:56.098Z,101341.75
2023-05-19T22:34:24.341Z,101345.66
2023-05-19T22:36:53.933Z,101347.06
2023-05-19T22:39:22.048Z,101347.31
2023-05-19T22:41:50.203Z,101349.44
2023-05-19T22:44:19.605Z,101350.69
2023-05-19T22:46:47.702Z,101350.16
2023-05-19T22:49:17.122Z,101350.28
2023-05-19T22:51:45.237Z,101350.72
2023-05-19T22:54:13.447Z,101355.31
2023-05-19T22:56:44.322Z,101352.94
2023-05-19T22:59:13.385Z,101354.75
2023-05-19T23:01:41.489Z,101346.16
2023-05-19T23:04:09.624Z,101350.75
2023-05-19T23:06:39.112Z,101353.38
2023-05-19T23:09:07.171Z,101354.34
2023-05-19T23:11:35.905Z,101353.66
2023-05-19T23:14:04.118Z,101352.81
2023-05-19T23:16:32.202Z,101359.25
2023-05-19T23:19:01.080Z,101360.22
2023-05-19T23:21:31.346Z,101362.03
2023-05-19T23:24:00.807Z,101364.81
2023-05-19T23:26:28.840Z,101363.97
2023-05-19T23:28:56.949Z,101359.50
2023-05-19T23:31:25.096Z,101350.88
2023-05-19T23:33:53.243Z,101354.34
2023-05-19T23:36:21.434Z,101345.47
2023-05-19T23:38:49.471Z,101350.59
2023-05-19T23:41:18.999Z,101351.31
2023-05-19T23:43:47.027Z,101344.22
2023-05-19T23:46:15.230Z,101349.19
2023-05-19T23:48:43.420Z,101344.47
2023-05-19T23:51:11.808Z,101345.16
2023-05-19T23:53:39.989Z,101349.19
2023-05-19T23:56:08.868Z,101346.25
2023-05-19T23:58:38.308Z,101351.28
